createdAt,value
2023-04-06T00:36:17.644Z,91.80
2023-04-06T00:42:13.424Z,92.10
2023-04-06T00:54:31.002Z,91.70
2023-04-06T01:13:08.123Z,91.90
2023-04-06T01:19:23.950Z,91.80
2023-04-06T01:22:27.911Z,91.50
2023-04-06T01:35:24.444Z,91.30
2023-04-06T01:54:26.471Z,90.80
2023-04-06T02:07:09.967Z,90.80
2023-04-06T02:28:47.211Z,90.80
2023-04-06T02:47:29.829Z,91.00
2023-04-06T03:25:53.357Z,90.60
2023-04-06T03:41:35.911Z,90.20
2023-04-06T04:06:58.838Z,90.40
2023-04-06T04:09:50.404Z,90.60
2023-04-06T04:12:30.863Z,90.50
2023-04-06T04:15:15.184Z,90.40
2023-04-06T04:17:44.242Z,90.40
2023-04-06T04:26:53.739Z,90.00
2023-04-06T04:29:53.125Z,89.90
2023-04-06T04:32:42.947Z,90.00
2023-04-06T04:35:22.530Z,89.70
2023-04-06T04:38:27.525Z,89.30
2023-04-06T04:41:21.225Z,89.50
2023-04-06T04:50:15.857Z,89.70
2023-04-06T04:53:06.048Z,89.10
2023-04-06T04:55:53.317Z,89.90
2023-04-06T04:58:59.671Z,89.00
2023-04-06T05:02:10.014Z,88.40
2023-04-06T05:05:07.050Z,88.20
2023-04-06T05:07:49.184Z,88.10
2023-04-06T05:10:48.902Z,88.40
2023-04-06T05:13:34.536Z,88.60
2023-04-06T05:16:29.494Z,88.30
2023-04-06T05:19:38.171Z,88.40
2023-04-06T05:26:07.138Z,88.50
2023-04-06T05:29:02.639Z,88.10
2023-04-06T05:32:01.462Z,88.30
2023-04-06T05:37:54.602Z,88.20
2023-04-06T05:46:42.821Z,88.50
2023-04-06T05:58:41.775Z,87.90
2023-04-06T06:01:52.473Z,87.30
2023-04-06T06:04:50.450Z,87.40
2023-04-06T06:13:52.825Z,85.90
2023-04-06T06:19:36.073Z,85.90
2023-04-06T06:22:40.335Z,85.30
2023-04-06T06:25:43.119Z,85.00
2023-04-06T06:31:25.797Z,85.80
2023-04-06T06:34:03.887Z,84.10
2023-04-06T06:36:48.984Z,84.60
2023-04-06T06:42:59.262Z,83.30
2023-04-06T06:45:59.402Z,83.00
2023-04-06T06:51:51.021Z,81.60
2023-04-06T06:54:52.469Z,82.20
2023-04-06T06:57:50.188Z,80.50
2023-04-06T07:00:48.268Z,80.10
2023-04-06T07:06:47.789Z,79.70
2023-04-06T07:09:34.727Z,79.10
2023-04-06T07:21:41.076Z,80.50
2023-04-06T07:24:32.317Z,79.20
2023-04-06T07:30:18.135Z,80.00
2023-04-06T07:36:21.354Z,81.30
2023-04-06T07:38:59.096Z,80.80
2023-04-06T07:44:44.541Z,79.40
2023-04-06T07:50:23.588Z,80.80
2023-04-06T07:56:05.520Z,79.60
2023-04-06T07:59:09.444Z,79.50
2023-04-06T08:02:06.097Z,80.20
2023-04-06T08:05:01.408Z,79.10
2023-04-06T08:10:38.963Z,79.70
2023-04-06T08:13:05.563Z,78.30
2023-04-06T08:15:32.183Z,77.20
2023-04-06T08:17:59.015Z,77.60
2023-04-06T08:20:25.678Z,78.80
2023-04-06T08:22:53.754Z,78.90
2023-04-06T08:25:20.608Z,78.10
2023-04-06T08:27:47.222Z,79.70
2023-04-06T08:30:15.905Z,77.50
2023-04-06T08:32:42.599Z,79.90
2023-04-06T08:35:09.226Z,77.50
2023-04-06T08:37:35.924Z,78.80
2023-04-06T08:40:03.071Z,77.70
2023-04-06T08:42:29.679Z,77.90
2023-04-06T08:44:56.577Z,78.10
2023-04-06T08:47:24.817Z,79.50
2023-04-06T08:49:51.791Z,77.30
2023-04-06T08:52:18.402Z,77.90
2023-04-06T08:54:44.942Z,79.00
2023-04-06T08:57:24.980Z,77.60
2023-04-06T09:00:11.562Z,77.10
2023-04-06T09:02:49.043Z,78.20
2023-04-06T09:05:19.591Z,78.40
2023-04-06T09:07:46.222Z,77.00
2023-04-06T09:10:12.866Z,78.50
2023-04-06T09:12:39.404Z,77.90
2023-04-06T09:15:06.050Z,78.00
2023-04-06T09:17:37.579Z,75.60
2023-04-06T09:20:04.413Z,76.00
2023-04-06T09:22:31.185Z,75.20
2023-04-06T09:24:57.811Z,77.40
2023-04-06T09:27:24.459Z,74.30
2023-04-06T09:29:51.158Z,74.60
2023-04-06T09:32:18.176Z,77.30
2023-04-06T09:34:50.850Z,75.00
2023-04-06T09:37:17.822Z,74.50
2023-04-06T09:39:44.381Z,73.60
2023-04-06T09:42:11.169Z,74.40
2023-04-06T09:44:37.712Z,73.40
2023-04-06T09:47:04.430Z,73.10
2023-04-06T09:49:31.003Z,72.70
2023-04-06T09:51:57.597Z,71.80
2023-04-06T09:54:24.131Z,73.90
2023-04-06T09:56:50.704Z,73.20
2023-04-06T09:59:17.418Z,72.40
2023-04-06T10:01:47.589Z,74.50
2023-04-06T10:04:15.353Z,67.60
2023-04-06T10:06:42.204Z,69.90
2023-04-06T10:09:09.119Z,67.10
2023-04-06T10:11:36.184Z,65.30
2023-04-06T10:14:02.783Z,67.20
2023-04-06T10:16:30.439Z,65.50
2023-04-06T10:18:57.176Z,63.60
2023-04-06T10:24:56.909Z,62.70
2023-04-06T10:40:30.656Z,58.50
2023-04-06T11:18:16.948Z,58.70
2023-04-06T12:05:31.857Z,58.50
2023-04-06T12:20:59.245Z,60.40
2023-04-06T12:33:53.272Z,63.50
2023-04-06T12:43:25.329Z,65.00
2023-04-06T12:46:27.739Z,64.40
2023-04-06T12:49:32.996Z,61.40
2023-04-06T13:02:09.718Z,63.20
2023-04-06T13:05:16.255Z,64.60
2023-04-06T13:17:18.746Z,63.70
2023-04-06T13:20:14.191Z,63.90
2023-04-06T13:35:56.896Z,67.40
2023-04-06T13:39:03.088Z,66.20
2023-04-06T13:45:21.773Z,67.30
2023-04-06T13:47:48.976Z,66.40
2023-04-06T13:53:17.737Z,66.30
2023-04-06T13:55:44.505Z,67.80
2023-04-06T13:58:11.116Z,68.60
2023-04-06T14:00:38.149Z,67.20
2023-04-06T14:03:04.887Z,68.40
2023-04-06T14:05:31.763Z,69.40
2023-04-06T14:07:58.523Z,70.60
2023-04-06T14:10:27.579Z,69.80
2023-04-06T14:12:54.060Z,68.80
2023-04-06T14:15:22.777Z,69.80
2023-04-06T14:17:49.449Z,71.60
2023-04-06T14:20:18.564Z,71.50
2023-04-06T14:22:45.140Z,71.80
2023-04-06T14:25:14.984Z,71.10
2023-04-06T14:27:41.835Z,69.30
2023-04-06T14:30:08.506Z,69.10
2023-04-06T14:32:35.403Z,69.90
2023-04-06T14:35:01.959Z,69.40
2023-04-06T14:37:28.450Z,69.00
2023-04-06T14:39:54.976Z,68.20
2023-04-06T14:42:21.502Z,67.70
2023-04-06T14:44:49.549Z,67.40
2023-04-06T14:47:21.052Z,67.20
2023-04-06T14:49:48.153Z,66.70
2023-04-06T14:52:14.737Z,65.90
2023-04-06T14:54:41.275Z,66.70
2023-04-06T14:57:07.906Z,67.30
2023-04-06T14:59:35.993Z,65.50
2023-04-06T15:02:05.808Z,63.90
2023-04-06T15:04:35.681Z,63.40
2023-04-06T15:07:02.220Z,64.00
2023-04-06T15:09:28.777Z,64.90
2023-04-06T15:11:56.415Z,65.10
2023-04-06T15:14:22.913Z,66.70
2023-04-06T15:16:49.479Z,66.50
2023-04-06T15:19:16.046Z,66.90
2023-04-06T15:21:42.643Z,67.00
2023-04-06T15:24:09.712Z,67.40
2023-04-06T15:26:36.581Z,68.50
2023-04-06T15:29:03.107Z,69.00
2023-04-06T15:31:37.462Z,68.60
2023-04-06T15:34:04.593Z,68.60
2023-04-06T15:36:31.258Z,69.30
2023-04-06T15:38:57.813Z,69.40
2023-04-06T15:41:24.671Z,70.40
2023-04-06T15:43:51.627Z,71.80
2023-04-06T15:46:18.187Z,72.30
2023-04-06T15:48:45.028Z,72.80
2023-04-06T15:51:12.329Z,72.20
2023-04-06T15:53:38.942Z,71.70
2023-04-06T15:56:05.491Z,72.80
2023-04-06T15:58:31.985Z,73.00
2023-04-06T16:00:58.538Z,73.80
2023-04-06T16:03:25.331Z,74.40
2023-04-06T16:06:04.572Z,74.30
2023-04-06T16:08:35.014Z,74.50
2023-04-06T16:11:01.601Z,75.30
2023-04-06T16:13:28.102Z,76.40
2023-04-06T16:15:54.730Z,75.10
2023-04-06T16:18:21.235Z,76.20
2023-04-06T16:20:47.783Z,76.70
2023-04-06T16:23:14.265Z,77.20
2023-04-06T16:25:41.721Z,77.80
2023-04-06T16:28:08.254Z,77.70
2023-04-06T16:30:34.733Z,78.60
2023-04-06T16:33:01.504Z,80.00
2023-04-06T16:35:28.001Z,79.90
2023-04-06T16:37:54.464Z,81.60
2023-04-06T16:40:21.174Z,81.60
2023-04-06T16:42:48.188Z,82.90
2023-04-06T16:45:15.694Z,84.10
2023-04-06T16:47:42.491Z,83.40
2023-04-06T16:50:09.064Z,83.70
2023-04-06T16:52:35.683Z,85.20
2023-04-06T16:55:02.211Z,85.60
2023-04-06T16:57:31.820Z,86.50
2023-04-06T16:59:58.383Z,86.90
2023-04-06T17:02:24.988Z,87.50
2023-04-06T17:04:51.637Z,88.70
2023-04-06T17:07:18.142Z,89.80
2023-04-06T17:09:44.885Z,90.60
2023-04-06T17:12:13.541Z,91.30
2023-04-06T17:14:40.266Z,92.20
2023-04-06T17:17:06.872Z,92.90
2023-04-06T17:19:33.558Z,93.60
2023-04-06T17:22:00.125Z,94.40
2023-04-06T17:24:27.266Z,94.10
2023-04-06T17:26:53.787Z,95.90
2023-04-06T17:29:20.287Z,96.40
2023-04-06T17:31:46.754Z,97.80
2023-04-06T17:34:13.307Z,99.20
2023-04-06T17:36:39.827Z,99.00
2023-04-06T17:39:06.487Z,99.90
2023-04-06T17:41:34.289Z,99.90
2023-04-06T17:44:01.245Z,99.90
2023-04-06T17:46:27.807Z,99.90
2023-04-06T17:48:54.377Z,99.90
2023-04-06T17:51:21.376Z,99.90
2023-04-06T17:53:47.872Z,99.90
2023-04-06T17:56:14.399Z,99.90
2023-04-06T17:58:40.907Z,99.90
2023-04-06T18:01:08.526Z,99.90
2023-04-06T18:03:35.690Z,99.90
2023-04-06T18:06:02.276Z,99.90
2023-04-06T18:08:28.759Z,99.90
2023-04-06T18:10:55.513Z,99.90
2023-04-06T18:13:22.156Z,99.90
2023-04-06T18:15:48.661Z,99.90
2023-04-06T18:18:16.732Z,99.90
2023-04-06T18:20:43.244Z,99.90
2023-04-06T18:23:10.318Z,99.90
2023-04-06T18:25:36.800Z,99.90
2023-04-06T18:28:03.299Z,99.90
2023-04-06T18:30:29.878Z,99.90
2023-04-06T18:32:56.510Z,99.90
2023-04-06T18:35:23.176Z,99.90
2023-04-06T18:37:49.660Z,99.90
2023-04-06T18:40:16.255Z,99.90
2023-04-06T18:42:42.737Z,99.90
2023-04-06T18:45:09.248Z,99.90
2023-04-06T18:47:36.086Z,99.90
2023-04-06T18:50:02.609Z,99.90
2023-04-06T18:52:29.116Z,99.90
2023-04-06T18:54:55.611Z,99.90
2023-04-06T18:57:22.109Z,99.90
2023-04-06T18:59:48.625Z,99.90
2023-04-06T19:02:15.373Z,99.90
2023-04-06T19:04:42.177Z,99.90
2023-04-06T19:07:08.722Z,99.90
2023-04-06T19:09:35.208Z,99.90
2023-04-06T19:12:01.774Z,99.90
2023-04-06T19:14:28.272Z,99.90
2023-04-06T19:16:54.878Z,99.90
2023-04-06T19:19:21.634Z,99.90
2023-04-06T19:21:48.122Z,99.90
2023-04-06T19:24:14.716Z,99.90
2023-04-06T19:26:42.450Z,99.90
2023-04-06T19:29:09.475Z,99.90
2023-04-06T19:31:36.225Z,99.90
2023-04-06T19:34:02.890Z,99.90
2023-04-06T19:36:29.499Z,99.90
2023-04-06T19:38:56.034Z,99.90
2023-04-06T19:41:22.817Z,99.90
2023-04-06T19:43:49.308Z,99.90
2023-04-06T19:46:15.887Z,99.90
2023-04-06T19:48:43.124Z,99.90
2023-04-06T19:51:10.114Z,99.90
2023-04-06T19:53:37.593Z,99.90
2023-04-06T19:56:04.515Z,99.90
2023-04-06T19:58:31.000Z,99.90
2023-04-06T20:00:57.760Z,99.90
2023-04-06T20:03:24.411Z,99.90
2023-04-06T20:05:51.029Z,99.90
2023-04-06T20:08:17.512Z,99.90
2023-04-06T20:10:44.019Z,99.90
2023-04-06T20:13:10.652Z,99.90
2023-04-06T20:15:37.389Z,99.90
2023-04-06T20:18:03.942Z,99.90
2023-04-06T20:20:30.834Z,99.90
2023-04-06T20:22:57.320Z,99.90
2023-04-06T20:25:23.914Z,99.90
2023-04-06T20:27:50.438Z,99.90
2023-04-06T20:30:17.037Z,99.90
2023-04-06T20:32:43.582Z,99.90
2023-04-06T20:35:10.410Z,99.90
2023-04-06T20:37:40.013Z,99.90
2023-04-06T20:40:06.561Z,99.90
2023-04-06T20:42:33.135Z,99.90
2023-04-06T20:45:01.054Z,99.90
2023-04-06T20:47:27.634Z,99.90
2023-04-06T20:49:54.410Z,99.90
2023-04-06T20:52:20.916Z,99.90
2023-04-06T20:54:48.404Z,99.90
2023-04-06T20:57:14.894Z,99.90
2023-04-06T20:59:41.410Z,99.90
2023-04-06T21:02:08.009Z,99.90
2023-04-06T21:04:34.664Z,99.90
2023-04-06T21:07:01.350Z,99.90
2023-04-06T21:09:27.946Z,99.90
2023-04-06T21:11:54.479Z,99.90
2023-04-06T21:14:21.286Z,99.90
2023-04-06T21:16:47.895Z,99.90
2023-04-06T21:19:14.376Z,99.90
2023-04-06T21:21:40.842Z,99.90
2023-04-06T21:24:07.384Z,99.90
2023-04-06T21:26:34.323Z,99.90
2023-04-06T21:29:00.795Z,99.90
2023-04-06T21:31:27.358Z,99.90
2023-04-06T21:33:54.073Z,99.90
2023-04-06T21:36:20.700Z,99.90
2023-04-06T21:38:47.225Z,99.90
2023-04-06T21:41:13.720Z,99.90
2023-04-06T21:43:40.184Z,99.90
2023-04-06T21:46:06.846Z,99.90
2023-04-06T21:48:33.348Z,99.90
2023-04-06T21:50:59.863Z,99.90
2023-04-06T21:53:26.378Z,99.90
2023-04-06T21:55:52.889Z,99.90
2023-04-06T21:58:19.451Z,99.90
2023-04-06T22:00:46.287Z,99.90
2023-04-06T22:03:13.060Z,99.90
2023-04-06T22:05:39.785Z,99.90
2023-04-06T22:08:06.388Z,99.90
2023-04-06T22:10:32.986Z,99.90
2023-04-06T22:12:59.527Z,99.90
2023-04-06T22:15:26.401Z,99.90
2023-04-06T22:17:52.889Z,99.90
2023-04-06T22:20:19.413Z,99.90
2023-04-06T22:22:45.904Z,99.90
2023-04-06T22:25:12.388Z,99.90
2023-04-06T22:27:38.925Z,99.90
2023-04-06T22:30:05.521Z,99.90
2023-04-06T22:32:32.021Z,99.90
2023-04-06T22:34:58.534Z,99.90
2023-04-06T22:37:25.168Z,99.90
2023-04-06T22:39:51.692Z,99.90
2023-04-06T22:42:18.217Z,99.90
2023-04-06T22:44:44.761Z,99.90
2023-04-06T22:47:11.450Z,99.90
2023-04-06T22:49:38.023Z,99.90
2023-04-06T22:52:04.531Z,99.90
2023-04-06T22:54:31.048Z,99.90
2023-04-06T22:56:57.565Z,99.90
2023-04-06T22:59:24.115Z,99.90
2023-04-06T23:01:50.723Z,99.90
2023-04-06T23:04:17.926Z,99.90
2023-04-06T23:06:44.788Z,99.90
2023-04-06T23:09:11.407Z,99.90
2023-04-06T23:11:37.917Z,99.90
2023-04-06T23:14:04.405Z,99.90
2023-04-06T23:16:30.975Z,99.90
2023-04-06T23:18:57.505Z,99.90
2023-04-06T23:21:24.062Z,99.90
2023-04-06T23:23:50.822Z,99.90
2023-04-06T23:26:17.364Z,99.90
2023-04-06T23:28:43.898Z,99.90
2023-04-06T23:31:10.430Z,99.90
2023-04-06T23:33:36.957Z,99.90
2023-04-06T23:36:03.470Z,99.90
2023-04-06T23:38:30.289Z,99.90
2023-04-06T23:40:56.802Z,99.90
2023-04-06T23:43:23.343Z,99.90
2023-04-06T23:45:49.882Z,99.90
2023-04-06T23:48:16.358Z,99.90
2023-04-06T23:50:42.861Z,99.90
2023-04-06T23:53:09.383Z,99.90
2023-04-06T23:55:35.979Z,99.90
2023-04-06T23:58:04.120Z,99.90
